createdAt,value
2023-04-29T00:01:26.102Z,22.33
2023-04-29T00:03:54.068Z,22.36
2023-04-29T00:06:21.572Z,22.30
2023-04-29T00:08:48.760Z,22.43
2023-04-29T00:11:16.128Z,22.20
2023-04-29T00:13:43.329Z,21.86
2023-04-29T00:16:10.663Z,21.99
2023-04-29T00:18:38.016Z,21.95
2023-04-29T00:21:08.058Z,22.11
2023-04-29T00:23:35.553Z,21.97
2023-04-29T00:26:02.699Z,22.08
2023-04-29T00:28:29.954Z,22.02
2023-04-29T00:30:57.224Z,21.67
2023-04-29T00:33:24.387Z,21.85
2023-04-29T00:35:51.673Z,22.03
2023-04-29T00:38:19.048Z,21.77
2023-04-29T00:40:46.332Z,21.54
2023-04-29T00:43:13.705Z,21.59
2023-04-29T00:45:40.807Z,21.34
2023-04-29T00:48:08.194Z,21.40
2023-04-29T00:50:36.775Z,21.52
2023-04-29T00:53:04.403Z,21.55
2023-04-29T00:55:33.146Z,21.46
2023-04-29T00:58:00.765Z,21.35
2023-04-29T01:00:28.865Z,21.45
2023-04-29T01:02:57.200Z,21.36
2023-04-29T01:05:25.258Z,21.42
2023-04-29T01:08:49.934Z,21.60
2023-04-29T01:11:23.610Z,21.49
2023-04-29T01:13:56.446Z,21.49
2023-04-29T01:16:45.249Z,21.55
2023-04-29T01:19:53.565Z,21.82
2023-04-29T01:22:22.347Z,21.43
2023-04-29T01:24:49.890Z,21.39
2023-04-29T01:27:21.866Z,21.11
2023-04-29T01:31:01.274Z,21.58
2023-04-29T01:33:55.221Z,21.56
2023-04-29T01:36:40.192Z,21.54
2023-04-29T01:40:04.363Z,21.73
2023-04-29T01:42:46.100Z,21.66
2023-04-29T01:45:21.333Z,21.48
2023-04-29T01:47:51.274Z,21.50
2023-04-29T01:50:18.425Z,21.29
2023-04-29T01:52:45.687Z,21.20
2023-04-29T01:55:12.736Z,21.04
2023-04-29T01:57:56.884Z,21.07
2023-04-29T02:00:42.790Z,20.92
2023-04-29T02:03:10.279Z,20.94
2023-04-29T02:05:40.515Z,21.11
2023-04-29T02:08:07.896Z,21.14
2023-04-29T02:10:39.296Z,21.18
2023-04-29T02:13:28.432Z,21.19
2023-04-29T02:15:55.662Z,21.18
2023-04-29T02:18:22.767Z,21.26
2023-04-29T02:20:50.981Z,21.28
2023-04-29T02:23:18.030Z,21.27
2023-04-29T02:25:45.027Z,20.91
2023-04-29T02:28:12.457Z,21.13
2023-04-29T02:30:40.960Z,21.26
2023-04-29T02:33:08.778Z,21.31
2023-04-29T02:35:36.155Z,21.31
2023-04-29T02:38:03.378Z,21.24
2023-04-29T02:40:30.682Z,21.07
2023-04-29T02:42:59.251Z,21.25
2023-04-29T02:45:28.108Z,21.33
2023-04-29T02:47:55.133Z,21.31
2023-04-29T02:50:22.306Z,21.31
2023-04-29T02:52:50.018Z,21.11
2023-04-29T02:55:17.203Z,21.02
2023-04-29T02:57:44.483Z,21.00
2023-04-29T03:00:11.904Z,21.04
2023-04-29T03:02:47.790Z,21.06
2023-04-29T03:05:15.578Z,21.03
2023-04-29T03:07:42.827Z,20.85
2023-04-29T03:10:10.160Z,20.92
2023-04-29T03:12:39.468Z,20.90
2023-04-29T03:15:08.090Z,21.05
2023-04-29T03:17:35.361Z,20.97
2023-04-29T03:20:03.494Z,20.98
2023-04-29T03:22:30.519Z,20.95
2023-04-29T03:24:57.509Z,20.89
2023-04-29T03:27:24.910Z,20.85
2023-04-29T03:29:52.223Z,20.79
2023-04-29T03:32:19.572Z,20.72
2023-04-29T03:34:46.829Z,20.59
2023-04-29T03:37:44.624Z,20.71
2023-04-29T03:40:29.524Z,20.60
2023-04-29T03:42:56.538Z,20.66
2023-04-29T03:45:24.296Z,20.55
2023-04-29T03:47:51.710Z,20.48
2023-04-29T03:50:19.120Z,20.51
2023-04-29T03:52:50.283Z,20.57
2023-04-29T03:55:19.645Z,20.36
2023-04-29T03:57:47.976Z,20.20
2023-04-29T04:00:19.695Z,20.69
2023-04-29T04:02:53.368Z,20.56
2023-04-29T04:05:21.520Z,20.61
2023-04-29T04:07:54.002Z,20.47
2023-04-29T04:10:30.091Z,20.53
2023-04-29T04:12:58.715Z,20.63
2023-04-29T04:15:26.457Z,20.52
2023-04-29T04:17:53.626Z,20.44
2023-04-29T04:20:20.713Z,20.74
2023-04-29T04:22:49.448Z,20.51
2023-04-29T04:25:21.443Z,20.56
2023-04-29T04:27:49.485Z,20.67
2023-04-29T04:30:28.461Z,20.66
2023-04-29T04:32:55.541Z,20.76
2023-04-29T04:35:22.740Z,20.63
2023-04-29T04:37:50.859Z,20.25
2023-04-29T04:40:17.895Z,20.63
2023-04-29T04:43:07.327Z,20.68
2023-04-29T04:45:36.685Z,20.67
2023-04-29T04:48:04.494Z,20.46
2023-04-29T04:50:33.911Z,20.76
2023-04-29T04:53:00.975Z,20.69
2023-04-29T04:55:43.188Z,21.05
2023-04-29T04:58:10.169Z,20.31
2023-04-29T05:00:39.047Z,20.48
2023-04-29T05:03:06.304Z,20.63
2023-04-29T05:05:33.985Z,20.42
2023-04-29T05:08:01.606Z,20.42
2023-04-29T05:10:41.021Z,20.96
2023-04-29T05:13:08.367Z,19.61
2023-04-29T05:15:38.903Z,20.59
2023-04-29T05:18:07.595Z,20.81
2023-04-29T05:20:35.345Z,20.96
2023-04-29T05:23:03.494Z,20.98
2023-04-29T05:25:35.981Z,20.87
2023-04-29T05:28:04.795Z,21.08
2023-04-29T05:30:34.774Z,21.03
2023-04-29T05:33:02.341Z,21.17
2023-04-29T05:35:29.622Z,21.02
2023-04-29T05:38:00.262Z,21.44
2023-04-29T05:40:36.087Z,21.40
2023-04-29T05:43:18.130Z,21.37
2023-04-29T05:45:47.796Z,21.54
2023-04-29T05:48:14.874Z,20.72
2023-04-29T05:50:42.105Z,20.69
2023-04-29T05:53:09.175Z,20.78
2023-04-29T05:55:36.665Z,20.66
2023-04-29T05:58:04.165Z,20.35
2023-04-29T06:00:31.897Z,20.17
2023-04-29T06:03:07.246Z,19.99
2023-04-29T06:05:35.313Z,20.40
2023-04-29T06:08:29.587Z,20.57
2023-04-29T06:11:05.308Z,21.06
2023-04-29T06:13:33.234Z,20.94
2023-04-29T06:16:00.405Z,20.98
2023-04-29T06:18:31.440Z,19.97
2023-04-29T06:20:59.820Z,20.04
2023-04-29T06:23:27.176Z,20.18
2023-04-29T06:25:54.851Z,20.28
2023-04-29T06:28:22.460Z,20.14
2023-04-29T06:30:50.391Z,20.12
2023-04-29T06:33:18.111Z,20.30
2023-04-29T06:35:45.130Z,20.42
2023-04-29T06:38:35.209Z,20.35
2023-04-29T06:41:32.211Z,20.08
2023-04-29T06:44:08.059Z,19.85
2023-04-29T06:46:39.352Z,19.90
2023-04-29T06:49:19.508Z,20.53
2023-04-29T06:51:49.062Z,20.03
2023-04-29T06:54:16.679Z,19.93
2023-04-29T06:56:43.755Z,19.77
2023-04-29T06:59:12.558Z,19.20
2023-04-29T07:01:42.489Z,19.89
2023-04-29T07:04:12.129Z,20.72
2023-04-29T07:06:39.511Z,20.18
2023-04-29T07:09:07.029Z,20.35
2023-04-29T07:11:34.419Z,20.03
2023-04-29T07:14:01.634Z,20.31
2023-04-29T07:16:30.641Z,20.25
2023-04-29T07:18:57.975Z,20.30
2023-04-29T07:21:25.181Z,20.61
2023-04-29T07:23:52.972Z,20.46
2023-04-29T07:26:19.984Z,20.84
2023-04-29T07:28:48.469Z,20.56
2023-04-29T07:31:16.771Z,20.77
2023-04-29T07:33:46.297Z,20.76
2023-04-29T07:36:13.459Z,20.38
2023-04-29T07:38:41.335Z,20.03
2023-04-29T07:41:08.345Z,21.08
2023-04-29T07:43:35.559Z,21.06
2023-04-29T07:46:02.744Z,20.29
2023-04-29T07:48:29.954Z,20.00
2023-04-29T07:50:57.353Z,20.43
2023-04-29T07:53:24.382Z,20.39
2023-04-29T07:55:51.993Z,21.04
2023-04-29T07:58:21.213Z,20.91
2023-04-29T08:00:48.591Z,20.58
2023-04-29T08:03:15.647Z,21.10
2023-04-29T08:05:45.241Z,21.13
2023-04-29T08:08:15.631Z,20.63
2023-04-29T08:10:44.026Z,20.47
2023-04-29T08:13:11.225Z,20.84
2023-04-29T08:15:41.444Z,21.06
2023-04-29T08:18:08.526Z,20.59
2023-04-29T08:20:35.707Z,20.30
2023-04-29T08:23:02.987Z,20.82
2023-04-29T08:25:30.612Z,20.65
2023-04-29T08:27:57.835Z,20.93
2023-04-29T08:30:24.895Z,21.22
2023-04-29T08:32:52.072Z,20.77
2023-04-29T08:35:19.208Z,20.97
2023-04-29T08:37:46.356Z,21.17
2023-04-29T08:40:13.955Z,20.65
2023-04-29T08:42:41.168Z,21.20
2023-04-29T08:45:08.725Z,20.62
2023-04-29T08:47:37.092Z,21.51
2023-04-29T08:50:06.301Z,21.74
2023-04-29T08:52:33.834Z,21.57
2023-04-29T08:55:05.630Z,21.33
2023-04-29T08:57:43.212Z,22.06
2023-04-29T09:00:11.815Z,21.57
2023-04-29T09:02:46.463Z,22.02
2023-04-29T09:05:13.679Z,21.64
2023-04-29T09:07:41.885Z,21.45
2023-04-29T09:10:10.446Z,21.93
2023-04-29T09:12:37.738Z,21.88
2023-04-29T09:15:05.325Z,21.78
2023-04-29T09:17:48.771Z,21.86
2023-04-29T09:20:22.147Z,22.58
2023-04-29T09:22:59.495Z,21.71
2023-04-29T09:25:27.915Z,21.58
2023-04-29T09:27:55.891Z,21.45
2023-04-29T09:30:24.117Z,21.12
2023-04-29T09:33:10.196Z,21.75
2023-04-29T09:35:40.786Z,21.80
2023-04-29T09:38:16.853Z,21.92
2023-04-29T09:40:58.108Z,21.60
2023-04-29T09:43:26.223Z,21.38
2023-04-29T09:45:53.611Z,20.83
2023-04-29T09:48:20.744Z,20.90
2023-04-29T09:51:02.203Z,22.03
2023-04-29T09:53:31.597Z,21.67
2023-04-29T09:56:01.150Z,21.87
2023-04-29T09:58:37.324Z,21.84
2023-04-29T10:01:05.364Z,21.91
2023-04-29T10:03:38.595Z,22.09
2023-04-29T10:06:08.242Z,21.81
2023-04-29T10:08:35.871Z,21.79
2023-04-29T10:11:04.521Z,22.10
2023-04-29T10:13:34.965Z,21.68
2023-04-29T10:16:48.338Z,22.10
2023-04-29T10:19:37.113Z,21.72
2023-04-29T10:22:17.267Z,21.65
2023-04-29T10:24:44.857Z,21.47
2023-04-29T10:27:13.288Z,21.19
2023-04-29T10:29:41.712Z,21.27
2023-04-29T10:32:13.182Z,21.61
2023-04-29T10:34:41.122Z,21.66
2023-04-29T10:37:16.798Z,21.78
2023-04-29T10:40:21.002Z,22.12
2023-04-29T10:42:53.289Z,21.73
2023-04-29T10:45:28.411Z,21.89
2023-04-29T10:48:08.862Z,21.82
2023-04-29T10:50:46.701Z,22.83
2023-04-29T10:53:22.204Z,22.49
2023-04-29T10:55:57.276Z,22.42
2023-04-29T10:58:44.744Z,23.36
2023-04-29T11:01:15.113Z,22.94
2023-04-29T11:03:50.863Z,23.26
2023-04-29T11:06:17.953Z,22.60
2023-04-29T11:08:45.077Z,22.28
2023-04-29T11:11:15.005Z,22.69
2023-04-29T11:13:47.200Z,22.68
2023-04-29T11:16:14.345Z,21.85
2023-04-29T11:19:11.078Z,22.15
2023-04-29T11:21:38.170Z,22.13
2023-04-29T11:24:06.669Z,22.34
2023-04-29T11:26:37.410Z,23.31
2023-04-29T11:29:06.005Z,22.77
2023-04-29T11:31:33.576Z,23.15
2023-04-29T11:34:00.985Z,23.16
2023-04-29T11:36:28.448Z,22.71
2023-04-29T11:38:56.010Z,22.48
2023-04-29T11:41:23.825Z,23.24
2023-04-29T11:43:59.699Z,23.49
2023-04-29T11:46:30.968Z,23.54
2023-04-29T11:49:00.084Z,22.94
2023-04-29T11:51:28.033Z,22.44
2023-04-29T11:53:57.905Z,22.94
2023-04-29T11:56:25.956Z,23.22
2023-04-29T11:59:01.408Z,24.00
2023-04-29T12:01:28.569Z,24.21
2023-04-29T12:04:02.841Z,24.15
2023-04-29T12:06:30.868Z,24.25
2023-04-29T12:09:00.820Z,23.65
2023-04-29T12:11:29.169Z,23.60
2023-04-29T12:13:57.974Z,23.53
2023-04-29T12:16:25.757Z,23.65
2023-04-29T12:18:53.495Z,23.34
2023-04-29T12:21:22.187Z,24.00
2023-04-29T12:23:49.342Z,24.36
2023-04-29T12:26:17.815Z,24.29
2023-04-29T12:28:44.903Z,24.96
2023-04-29T12:31:11.978Z,24.51
2023-04-29T12:33:44.337Z,23.62
2023-04-29T12:36:19.127Z,24.60
2023-04-29T12:38:48.085Z,24.53
2023-04-29T12:41:17.565Z,23.79
2023-04-29T12:43:44.705Z,24.07
2023-04-29T12:46:15.336Z,23.71
2023-04-29T12:48:43.871Z,23.52
2023-04-29T12:51:11.935Z,23.32
2023-04-29T12:53:39.757Z,23.46
2023-04-29T12:56:07.494Z,24.14
2023-04-29T12:58:35.017Z,26.06
2023-04-29T13:01:02.209Z,25.75
2023-04-29T13:03:29.405Z,25.75
2023-04-29T13:05:57.247Z,24.97
2023-04-29T13:08:24.305Z,24.77
2023-04-29T13:10:51.547Z,24.30
2023-04-29T13:13:18.564Z,23.66
2023-04-29T13:15:45.658Z,23.92
2023-04-29T13:18:12.679Z,24.37
2023-04-29T13:20:42.316Z,24.72
2023-04-29T13:23:10.702Z,25.38
2023-04-29T13:25:37.977Z,25.17
2023-04-29T13:28:08.266Z,24.11
2023-04-29T13:30:35.400Z,23.46
2023-04-29T13:33:09.662Z,23.69
2023-04-29T13:35:40.374Z,23.61
2023-04-29T13:38:11.581Z,23.64
2023-04-29T13:40:46.646Z,23.75
2023-04-29T13:43:18.625Z,24.06
2023-04-29T13:45:53.039Z,23.87
2023-04-29T13:48:45.218Z,23.49
2023-04-29T13:54:16.068Z,23.69
2023-04-29T14:02:14.801Z,23.57
2023-04-29T14:04:12.915Z,23.96
2023-04-29T14:06:39.973Z,24.22
2023-04-29T14:09:06.974Z,24.39
2023-04-29T14:11:38.502Z,24.32
2023-04-29T14:14:05.665Z,24.65
2023-04-29T14:16:33.062Z,24.24
2023-04-29T14:19:02.053Z,24.43
2023-04-29T14:21:31.927Z,24.58
2023-04-29T14:24:00.064Z,24.56
2023-04-29T14:26:28.655Z,24.02
2023-04-29T14:29:00.329Z,24.48
2023-04-29T14:31:38.404Z,24.60
2023-04-29T14:34:05.867Z,24.14
2023-04-29T14:36:33.073Z,24.20
2023-04-29T14:39:01.024Z,23.94
2023-04-29T14:41:28.363Z,24.30
2023-04-29T14:43:55.473Z,24.53
2023-04-29T14:46:23.553Z,24.26
2023-04-29T14:48:50.662Z,23.51
2023-04-29T14:51:17.600Z,23.90
2023-04-29T14:53:44.615Z,24.13
2023-04-29T14:56:11.738Z,23.58
2023-04-29T14:58:38.879Z,24.08
2023-04-29T15:01:06.201Z,24.30
2023-04-29T15:06:07.202Z,23.84
2023-04-29T15:08:34.313Z,24.74
2023-04-29T15:11:01.290Z,24.08
2023-04-29T15:13:29.417Z,24.05
2023-04-29T15:15:57.551Z,23.88
2023-04-29T15:18:28.432Z,23.98
2023-04-29T15:20:55.693Z,23.68
2023-04-29T15:23:22.660Z,23.69
2023-04-29T15:25:50.281Z,23.68
2023-04-29T15:28:17.313Z,23.97
2023-04-29T15:30:44.275Z,24.28
2023-04-29T15:33:11.377Z,23.32
2023-04-29T15:35:39.388Z,23.81
2023-04-29T15:38:07.236Z,23.41
2023-04-29T15:40:34.279Z,23.46
2023-04-29T15:43:01.444Z,23.70
2023-04-29T15:45:28.546Z,23.65
2023-04-29T15:47:55.754Z,23.23
2023-04-29T15:50:22.775Z,23.63
2023-04-29T15:52:52.496Z,23.91
2023-04-29T15:55:20.696Z,23.49
2023-04-29T15:57:47.774Z,23.51
2023-04-29T16:00:14.826Z,23.47
2023-04-29T16:02:41.843Z,23.78
2023-04-29T16:05:09.372Z,23.47
2023-04-29T16:07:36.866Z,24.06
2023-04-29T16:10:04.220Z,24.27
2023-04-29T16:12:31.444Z,23.67
2023-04-29T16:14:58.366Z,23.77
2023-04-29T16:17:25.725Z,24.07
2023-04-29T16:19:52.908Z,23.88
2023-04-29T16:22:21.121Z,24.00
2023-04-29T16:24:49.917Z,23.88
2023-04-29T16:27:17.710Z,23.92
2023-04-29T16:29:44.654Z,23.73
2023-04-29T16:32:11.759Z,23.84
2023-04-29T16:34:38.928Z,23.33
2023-04-29T16:37:12.291Z,23.84
2023-04-29T16:39:43.051Z,24.05
2023-04-29T16:42:10.080Z,24.03
2023-04-29T16:44:37.018Z,23.55
2023-04-29T16:47:04.276Z,24.01
2023-04-29T16:49:31.434Z,23.74
2023-04-29T16:51:58.626Z,23.77
2023-04-29T16:54:26.410Z,23.60
2023-04-29T16:56:53.703Z,23.89
2023-04-29T16:59:20.810Z,24.17
2023-04-29T17:01:47.902Z,24.36
2023-04-29T17:04:15.256Z,24.56
2023-04-29T17:06:43.110Z,23.80
2023-04-29T17:09:10.414Z,24.37
2023-04-29T17:11:37.614Z,24.25
2023-04-29T17:14:05.218Z,24.24
2023-04-29T17:16:33.376Z,24.33
2023-04-29T17:19:00.627Z,24.30
2023-04-29T17:21:30.538Z,24.40
2023-04-29T17:23:58.822Z,24.40
2023-04-29T17:26:25.968Z,24.46
2023-04-29T17:28:53.179Z,24.38
2023-04-29T17:31:21.250Z,24.55
2023-04-29T17:33:55.440Z,24.39
2023-04-29T17:36:22.755Z,24.64
2023-04-29T17:38:49.871Z,24.59
2023-04-29T17:41:17.003Z,24.25
2023-04-29T17:43:44.022Z,24.45
2023-04-29T17:46:11.311Z,24.13
2023-04-29T17:48:38.389Z,24.57
2023-04-29T17:51:05.489Z,24.59
2023-04-29T17:53:33.464Z,24.48
2023-04-29T17:56:00.713Z,24.25
2023-04-29T17:58:28.967Z,24.40
2023-04-29T18:00:56.764Z,24.32
2023-04-29T18:03:24.082Z,24.15
2023-04-29T18:05:51.533Z,23.66
2023-04-29T18:08:18.525Z,23.59
2023-04-29T18:10:45.712Z,23.91
2023-04-29T18:13:12.914Z,23.95
2023-04-29T18:15:40.302Z,23.83
2023-04-29T18:18:08.066Z,23.83
2023-04-29T18:20:35.156Z,23.98
2023-04-29T18:23:02.823Z,24.14
2023-04-29T18:25:30.203Z,24.13
2023-04-29T18:28:07.783Z,24.35
2023-04-29T18:30:47.561Z,24.36
2023-04-29T18:33:16.881Z,24.73
2023-04-29T18:35:44.156Z,24.65
2023-04-29T18:38:14.176Z,24.71
2023-04-29T18:40:41.918Z,24.92
2023-04-29T18:43:09.840Z,24.57
2023-04-29T18:45:36.873Z,24.23
2023-04-29T18:48:06.934Z,24.31
2023-04-29T18:50:34.222Z,24.41
2023-04-29T18:53:01.541Z,24.31
2023-04-29T18:55:28.766Z,24.21
2023-04-29T18:57:56.607Z,24.07
2023-04-29T19:00:23.946Z,24.19
2023-04-29T19:02:51.070Z,24.07
2023-04-29T19:05:21.555Z,23.93
2023-04-29T19:07:49.463Z,24.26
2023-04-29T19:10:16.577Z,24.16
2023-04-29T19:12:43.781Z,23.96
2023-04-29T19:15:11.903Z,23.99
2023-04-29T19:17:38.979Z,23.95
2023-04-29T19:20:07.650Z,23.85
2023-04-29T19:22:34.732Z,23.77
2023-04-29T19:25:05.101Z,23.95
2023-04-29T19:27:32.179Z,24.07
2023-04-29T19:29:59.253Z,23.84
2023-04-29T19:32:28.240Z,23.67
2023-04-29T19:34:57.158Z,23.68
2023-04-29T19:37:24.494Z,23.72
2023-04-29T19:39:52.305Z,23.67
2023-04-29T19:42:19.762Z,23.77
2023-04-29T19:44:47.294Z,23.78
2023-04-29T19:47:14.537Z,23.66
2023-04-29T19:49:41.609Z,23.68
2023-04-29T19:52:08.701Z,23.66
2023-04-29T19:54:35.824Z,23.58
2023-04-29T19:57:03.166Z,23.79
2023-04-29T19:59:30.368Z,23.72
2023-04-29T20:01:57.807Z,23.54
2023-04-29T20:04:25.756Z,23.66
2023-04-29T20:06:52.783Z,23.57
2023-04-29T20:09:20.331Z,23.61
2023-04-29T20:11:47.466Z,23.46
2023-04-29T20:14:14.542Z,23.57
2023-04-29T20:16:41.890Z,23.66
2023-04-29T20:19:09.063Z,23.65
2023-04-29T20:21:36.617Z,23.58
2023-04-29T20:24:03.787Z,23.79
2023-04-29T20:26:30.931Z,23.58
2023-04-29T20:28:58.445Z,23.74
2023-04-29T20:31:25.726Z,23.63
2023-04-29T20:33:53.772Z,23.55
2023-04-29T20:36:20.915Z,23.42
2023-04-29T20:38:49.187Z,23.58
2023-04-29T20:41:16.567Z,23.66
2023-04-29T20:43:44.303Z,23.98
2023-04-29T20:46:14.725Z,23.73
2023-04-29T20:48:42.610Z,23.13
2023-04-29T20:51:10.813Z,23.45
2023-04-29T20:53:37.902Z,23.43
2023-04-29T20:56:05.272Z,23.46
2023-04-29T20:58:32.355Z,23.37
2023-04-29T21:00:59.485Z,23.48
2023-04-29T21:03:26.617Z,23.46
2023-04-29T21:05:55.277Z,23.61
2023-04-29T21:08:22.717Z,23.25
2023-04-29T21:10:49.703Z,23.06
2023-04-29T21:13:17.847Z,22.77
2023-04-29T21:15:46.533Z,23.38
2023-04-29T21:18:14.735Z,23.38
2023-04-29T21:20:42.076Z,23.16
2023-04-29T21:23:09.095Z,23.28
2023-04-29T21:25:36.380Z,23.01
2023-04-29T21:28:04.040Z,22.92
2023-04-29T21:30:34.922Z,23.30
2023-04-29T21:33:02.932Z,23.32
2023-04-29T21:35:30.625Z,23.38
2023-04-29T21:37:57.805Z,23.22
2023-04-29T21:40:26.669Z,23.19
2023-04-29T21:42:57.460Z,23.23
2023-04-29T21:45:24.525Z,23.06
2023-04-29T21:47:52.711Z,22.97
2023-04-29T21:50:19.914Z,23.16
2023-04-29T21:52:47.016Z,23.03
2023-04-29T21:55:14.097Z,23.22
2023-04-29T21:57:44.884Z,23.07
2023-04-29T22:00:30.831Z,22.99
2023-04-29T22:02:58.106Z,22.77
2023-04-29T22:05:25.378Z,22.85
2023-04-29T22:07:52.611Z,22.89
2023-04-29T22:10:19.653Z,22.85
2023-04-29T22:12:46.726Z,22.79
2023-04-29T22:15:24.604Z,22.59
2023-04-29T22:17:54.592Z,22.70
2023-04-29T22:20:21.788Z,22.89
2023-04-29T22:22:48.882Z,22.53
2023-04-29T22:25:16.453Z,22.45
2023-04-29T22:27:43.478Z,22.48
2023-04-29T22:30:11.164Z,22.64
2023-04-29T22:32:38.380Z,22.82
2023-04-29T22:35:06.413Z,22.76
2023-04-29T22:37:33.548Z,22.69
2023-04-29T22:40:00.866Z,22.79
2023-04-29T22:42:27.870Z,22.77
2023-04-29T22:44:56.187Z,22.67
2023-04-29T22:47:23.200Z,22.79
2023-04-29T22:49:50.241Z,22.65
2023-04-29T22:52:17.259Z,22.67
2023-04-29T22:54:44.290Z,22.64
2023-04-29T22:57:11.346Z,22.39
2023-04-29T22:59:38.380Z,22.35
2023-04-29T23:02:05.686Z,22.60
2023-04-29T23:04:33.402Z,22.48
2023-04-29T23:07:00.526Z,22.63
2023-04-29T23:09:27.655Z,22.42
2023-04-29T23:11:54.701Z,22.52
2023-04-29T23:14:21.891Z,22.64
2023-04-29T23:16:49.010Z,22.72
2023-04-29T23:19:16.450Z,22.59
2023-04-29T23:21:43.628Z,22.64
2023-04-29T23:24:10.869Z,22.43
2023-04-29T23:26:37.921Z,22.06
2023-04-29T23:29:04.977Z,22.36
2023-04-29T23:31:32.026Z,22.42
2023-04-29T23:33:59.772Z,22.66
2023-04-29T23:36:27.663Z,22.55
2023-04-29T23:38:54.685Z,22.45
2023-04-29T23:41:21.694Z,22.24
2023-04-29T23:43:48.645Z,22.36
2023-04-29T23:46:15.700Z,22.05
2023-04-29T23:48:42.845Z,21.30
2023-04-29T23:51:09.949Z,21.41
2023-04-29T23:53:39.119Z,22.08
2023-04-29T23:56:06.556Z,21.64
2023-04-29T23:58:33.531Z,21.90
